Latest Weather Observations for Richmond

IDN60901

Issued at 11:21 am EDT Sunday 1 February 2015 (issued every 10 minutes, with the page automatically refreshed every 10 minutes)

About weather observations | Map of Sydney area stations | Latest observations for Sydney area | Other Formats
Station Details ID: 067105 Name: RICHMOND RAAF Lat: -33.60 Lon: 150.78 Height: 19.0 m
Data from the previous 72 hours. | See also: Recent months at Richmond
Date/Time
EDT
Tmp

°C
App
Tmp
°C
Dew
Point
°C
Rel
Hum
%
Delta-T

°C
Wind Press
QNH
hPa
Press
MSL
hPa
Rain
since
9 am
mm
Dir
 
Spd
km/h
Gust
km/h
Spd
kts
Gust
kts
01/11:00am 23.6 24.0 15.4 60 4.9 SE 7 13 4 7 1009.8 1009.7 0.0
01/10:30am 22.8 22.8 15.1 62 4.6 ESE 9 15 5 8 1009.9 1009.8 0.0
01/10:00am 22.1 22.4 15.0 64 4.2 SSE 7 11 4 6 1010.1 1010.0 0.0
01/09:30am 21.7 22.7 15.3 67 3.8 S 4 9 2 5 1010.0 1009.9 0.0
01/08:30am 20.0 20.5 15.6 76 2.6 SW 7 9 4 5 1009.7 1009.6 0.0
01/08:00am 19.5 20.1 15.2 76 2.5 SSW 6 7 3 4 1009.5 1009.4 0.0
01/07:30am 19.1 20.9 15.6 80 2.1 CALM 0 0 0 0 1009.2 1009.1 0.0
01/07:00am 18.1 20.0 15.7 86 1.4 CALM 0 0 0 0 1009.0 1008.9 0.0
01/06:30am 17.0 18.9 15.7 92 0.8 CALM 0 0 0 0 1008.8 1008.7 0.0
01/05:30am 17.6 19.3 15.2 86 1.4 CALM 0 0 0 0 1008.2 1008.1 0.0
01/05:00am 17.8 19.5 15.1 84 1.6 CALM 0 0 0 0 1007.9 1007.8 0.0
01/04:30am 18.5 19.1 15.2 81 1.9 SSW 6 7 3 4 1007.9 1007.8 0.0
01/04:00am 18.9 19.2 15.0 78 2.3 SSE 7 9 4 5 1008.0 1007.9 0.0
01/03:30am 19.0 19.7 15.7 81 2.0 SW 6 7 3 4 1008.0 1007.9 0.0
01/03:00am 18.9 20.7 15.4 80 2.1 CALM 0 0 0 0 1008.1 1008.0 0.0
01/02:30am 18.5 18.7 14.6 78 2.3 W 7 11 4 6 1008.5 1008.4 0.0
01/02:00am 19.2 19.4 14.7 75 2.6 WSW 7 9 4 5 1008.7 1008.6 0.0
01/01:30am 19.7 19.7 14.3 71 3.1 SW 7 11 4 6 1008.8 1008.7 0.0
01/01:00am 19.9 20.2 14.9 73 2.9 WSW 7 11 4 6 1009.1 1009.0 0.0
01/12:30am 19.6 19.9 14.6 73 2.9 SW 6 7 3 4 1009.1 1009.0 0.0
01/12:00am 20.2 20.4 14.6 70 3.3 SW 7 9 4 5 1009.5 1009.4 0.0
 
Date/Time
EDT
Tmp

°C
App
Tmp
°C
Dew
Point
°C
Rel
Hum
%
Delta-T

°C
Wind Press
QNH
hPa
Press
MSL
hPa
Rain
since
9 am
mm
Dir
 
Spd
km/h
Gust
km/h
Spd
kts
Gust
kts
31/11:30pm 20.4 20.4 15.2 72 3.1 SW 9 11 5 6 1009.6 1009.5 0.0
31/11:00pm 20.6 20.6 15.2 71 3.2 SW 9 11 5 6 1009.4 1009.3 0.0
31/10:30pm 21.5 22.4 15.1 67 3.8 SE 4 6 2 3 1009.5 1009.4 0.0
31/10:00pm 21.0 20.6 15.1 69 3.5 ESE 11 15 6 8 1009.0 1008.9 0.0
31/09:30pm 21.3 20.3 14.7 66 3.9 E 13 17 7 9 1008.7 1008.6 0.0
31/08:30pm 21.7 20.7 14.6 64 4.2 ESE 13 15 7 8 1007.7 1007.6 0.0
31/08:00pm 22.7 20.8 14.3 59 4.9 E 17 20 9 11 1007.2 1007.1 0.0
31/07:30pm 23.8 22.4 14.5 56 5.5 ESE 15 20 8 11 1006.8 1006.7 0.0
31/07:00pm 24.3 23.0 14.7 55 5.7 E 15 20 8 11 1006.5 1006.4 0.0
31/06:30pm 24.7 22.2 14.2 52 6.2 ESE 20 26 11 14 1006.1 1006.0 0.0
31/05:30pm 25.6 22.1 14.4 50 6.7 ESE 26 33 14 18 1005.0 1004.9 0.0
31/05:00pm 25.7 22.6 14.5 50 6.7 ESE 24 30 13 16 1004.8 1004.7 0.0
31/04:50pm 26.2 23.8 14.3 48 7.1 SE 20 33 11 18 1004.8 1004.7 0.0
31/04:30pm 27.1 26.4 12.0 39 8.7 SE 7 13 4 7 1004.8 1004.7 0.0
31/04:00pm 27.2 26.4 12.8 41 8.4 SSE 9 15 5 8 1004.8 1004.7 0.0
31/03:30pm 27.4 25.4 11.4 37 9.1 NE 13 20 7 11 1004.8 1004.7 0.0
31/03:00pm 27.0 26.0 12.3 40 8.5 NE 9 19 5 10 1004.9 1004.8 0.0
31/02:30pm 26.6 25.5 13.0 43 8.0 ENE 11 20 6 11 1004.9 1004.8 0.0
31/02:00pm 26.0 24.7 13.8 47 7.2 E 13 20 7 11 1005.4 1005.3 0.0
31/01:30pm 25.7 25.0 13.2 46 7.3 N 9 17 5 9 1005.7 1005.6 0.0
31/01:00pm 25.1 24.7 13.0 47 7.0 S 7 13 4 7 1006.1 1006.0 0.0
31/12:30pm 24.7 23.6 13.0 48 6.8 ESE 11 20 6 11 1006.6 1006.5 0.0
31/12:00pm 24.5 22.9 12.8 48 6.8 NE 13 17 7 9 1007.1 1007.0 0.0
31/11:30am 23.2 22.1 10.6 45 7.0 NW 7 17 4 9 1007.4 1007.3 0.0
31/11:00am 23.7 23.2 12.0 48 6.7 SSW 6 9 3 5 1007.6 1007.5 0.0
31/10:30am 22.1 21.2 11.5 51 5.9 SSE 7 11 4 6 1008.1 1008.0 0.0
31/10:00am 21.2 21.5 12.3 57 5.0 N 2 7 1 4 1008.2 1008.1 0.0
31/09:30am 20.5 20.0 12.2 59 4.7 ESE 6 9 3 5 1008.3 1008.2 0.0
31/09:00am 19.6 20.5 12.8 65 3.8 CALM 0 0 0 0 1008.5 1008.4 0.6
31/08:30am 18.3 19.5 13.8 75 2.6 CALM 0 0 0 0 1008.3 1008.2 0.6
31/08:00am 17.0 18.2 14.8 87 1.3 N 2 6 1 3 1008.3 1008.2 0.6
31/07:30am 15.7 17.4 15.1 96 0.3 CALM 0 0 0 0 1008.1 1008.0 0.6
31/07:00am 14.6 15.9 14.1 97 0.3 CALM 0 2 0 1 1007.9 1007.8 0.6
31/06:30am 14.1 13.9 13.6 97 0.3 NNW 7 9 4 5 1007.8 1007.7 0.6
31/06:00am 14.3 15.3 13.3 94 0.6 CALM 0 0 0 0 1007.3 1007.2 0.6
31/05:30am 14.5 15.2 13.4 93 0.6 N 2 7 1 4 1007.2 1007.1 0.6
31/05:00am 15.1 16.5 14.3 95 0.5 CALM 0 0 0 0 1007.1 1007.0 0.6
31/04:30am 15.1 16.5 14.3 95 0.5 CALM 0 0 0 0 1006.8 1006.7 0.6
31/04:00am 16.0 17.2 13.8 87 1.2 CALM 0 0 0 0 1006.8 1006.7 0.6
31/03:30am 16.2 17.6 14.4 89 1.0 CALM 0 0 0 0 1006.8 1006.7 0.6
31/03:00am 16.3 17.7 14.3 88 1.1 CALM 0 0 0 0 1006.8 1006.7 0.6
31/02:30am 16.4 17.7 14.2 87 1.3 CALM 0 0 0 0 1006.7 1006.6 0.6
31/02:00am 17.1 18.6 14.7 86 1.4 CALM 0 6 0 3 1007.0 1006.9 0.6
31/01:30am 17.7 19.1 14.4 81 1.9 CALM 0 0 0 0 1007.1 1007.0 0.6
31/01:00am 18.3 18.6 14.4 78 2.3 WNW 6 6 3 3 1007.5 1007.4 0.6
31/12:30am 18.8 19.1 14.5 76 2.5 NW 6 7 3 4 1007.7 1007.6 0.6
31/12:00am 19.4 21.0 14.9 75 2.6 CALM 0 0 0 0 1007.9 1007.8 0.6
 
Date/Time
EDT
Tmp

°C
App
Tmp
°C
Dew
Point
°C
Rel
Hum
%
Delta-T

°C
Wind Press
QNH
hPa
Press
MSL
hPa
Rain
since
9 am
mm
Dir
 
Spd
km/h
Gust
km/h
Spd
kts
Gust
kts
30/11:30pm 19.7 20.8 15.6 77 2.4 N 4 6 2 3 1007.9 1007.8 0.6
30/11:00pm 20.0 20.5 15.0 73 2.9 N 6 7 3 4 1007.9 1007.8 0.6
30/10:30pm 20.0 20.3 15.0 73 2.9 N 7 9 4 5 1007.9 1007.8 0.6
30/10:00pm 20.4 20.8 14.7 70 3.3 NE 6 9 3 5 1007.7 1007.6 0.6
30/09:30pm 20.6 20.2 14.0 66 3.8 ENE 9 13 5 7 1007.4 1007.3 0.6
30/09:00pm 21.6 19.7 13.0 58 4.9 E 15 19 8 10 1006.9 1006.8 0.6
30/08:30pm 22.1 19.1 11.8 52 5.8 E 19 26 10 14 1006.4 1006.3 0.6
30/08:00pm 22.9 19.1 11.3 48 6.5 ESE 22 32 12 17 1006.0 1005.9 0.6
30/07:30pm 25.8 23.8 6.4 29 10.1 SW 6 15 3 8 1005.3 1005.2 0.6
30/07:00pm 25.8 25.5 8.8 34 9.3 CALM 0 4 0 2 1005.0 1004.9 0.6
30/06:30pm 26.2 25.1 10.0 36 9.0 NW 6 7 3 4 1004.7 1004.6 0.6
30/06:00pm 26.5 24.3 8.0 31 10.0 NNW 9 13 5 7 1004.5 1004.4 0.6
30/05:30pm 26.7 24.7 8.6 32 9.8 NE 9 13 5 7 1004.6 1004.5 0.6
30/05:00pm 26.2 23.4 8.7 33 9.5 NE 13 19 7 10 1004.6 1004.5 0.6
30/04:30pm 26.7 25.8 9.1 33 9.6 NE 4 7 2 4 1004.8 1004.7 0.6
30/04:00pm 26.1 24.0 8.1 32 9.7 NW 9 15 5 8 1005.0 1004.9 0.6
30/03:30pm 26.3 24.9 9.6 35 9.2 N 7 11 4 6 1005.3 1005.2 0.6
30/03:00pm 25.5 23.9 8.9 35 9.0 SSE 7 17 4 9 1005.7 1005.6 0.6
30/02:30pm 24.7 22.1 9.4 38 8.3 SE 13 19 7 10 1005.9 1005.8 0.6
30/02:00pm 24.7 22.4 10.6 41 7.9 SE 13 22 7 12 1006.4 1006.3 0.6
30/01:30pm 24.4 20.9 8.8 37 8.4 SSE 17 26 9 14 1006.8 1006.7 0.6
30/01:00pm 24.0 22.5 9.2 39 8.0 WNW 7 20 4 11 1007.0 1006.9 0.6
30/12:30pm 24.1 21.9 10.7 43 7.4 SSW 13 22 7 12 1007.6 1007.5 0.6
30/12:00pm 22.4 20.2 7.8 39 7.6 S 9 13 5 7 1008.1 1008.0 0.6
30/11:30am 22.4 21.0 9.6 44 6.9 SSW 7 17 4 9 1008.6 1008.5 0.6
30/11:00am 21.0 18.2 8.6 45 6.5 W 13 19 7 10 1009.0 1008.9 0.6
30/10:30am 20.5 17.9 10.6 53 5.4 WNW 15 20 8 11 1009.5 1009.4 0.6
30/10:00am 19.3 17.1 9.2 52 5.3 NW 11 15 6 8 1010.0 1009.9 0.6
30/09:30am 18.4 18.4 11.0 62 4.0 SW 2 9 1 5 1010.1 1010.0 0.6
30/09:28am 18.4 18.6 10.5 60 4.2 CALM 0 0 0 0 1010.1 1010.0 0.6
30/09:13am 18.2 17.1 10.6 61 4.1 SW 7 13 4 7 1010.1 1010.0 0.6
30/09:00am 18.5 17.6 10.6 60 4.3 W 6 11 3 6 1010.3 1010.2 0.0
30/08:30am 17.2 17.9 12.1 72 2.8 CALM 0 0 0 0 1010.1 1010.0 0.0
30/08:00am 16.1 16.2 11.5 74 2.5 N 2 6 1 3 1010.2 1010.1 0.0
30/07:30am 15.2 15.9 12.3 83 1.6 CALM 0 0 0 0 1010.0 1009.9 0.0
30/07:00am 14.2 14.7 12.9 92 0.7 NE 2 6 1 3 1009.8 1009.7 0.0
30/06:30am 12.5 12.7 11.9 96 0.3 NE 2 6 1 3 1009.6 1009.5 0.0
30/06:00am 12.2 12.7 11.6 96 0.3 CALM 0 0 0 0 1009.5 1009.4 0.0
30/05:30am 12.1 11.4 11.3 95 0.4 NE 6 7 3 4 1009.4 1009.3 0.0
30/05:00am 12.3 12.8 11.5 95 0.4 CALM 0 0 0 0 1009.4 1009.3 0.0
30/04:30am 12.7 13.2 11.6 93 0.6 CALM 0 0 0 0 1009.3 1009.2 0.0
30/04:00am 13.0 12.3 11.4 90 0.8 WNW 6 7 3 4 1009.5 1009.4 0.0
30/03:30am 12.8 12.0 11.7 93 0.6 WNW 7 9 4 5 1009.8 1009.7 0.0
30/03:00am 13.1 12.5 12.2 94 0.5 NNW 7 9 4 5 1010.2 1010.1 0.0
30/02:30am 13.8 13.2 11.8 88 1.1 W 6 7 3 4 1010.3 1010.2 0.0
30/02:00am 14.3 13.3 12.3 88 1.1 W 9 13 5 7 1010.6 1010.5 0.0
30/01:30am 14.3 13.7 12.3 88 1.1 W 7 11 4 6 1010.8 1010.7 0.0
30/01:00am 14.7 15.3 12.0 84 1.5 CALM 0 6 0 3 1011.2 1011.1 0.0
30/12:30am 15.2 15.5 12.1 82 1.7 W 2 7 1 4 1011.5 1011.4 0.0
30/12:00am 16.3 15.5 11.2 72 2.7 SSW 6 9 3 5 1011.6 1011.5 0.0
 
Date/Time
EDT
Tmp

°C
App
Tmp
°C
Dew
Point
°C
Rel
Hum
%
Delta-T

°C
Wind Press
QNH
hPa
Press
MSL
hPa
Rain
since
9 am
mm
Dir
 
Spd
km/h
Gust
km/h
Spd
kts
Gust
kts
29/11:30pm 16.6 15.7 11.3 71 2.9 WSW 7 9 4 5 1011.9 1011.8 0.0
29/11:00pm 16.9 15.5 11.0 68 3.2 SSW 9 11 5 6 1012.1 1012.0 0.0
29/10:30pm 17.3 16.0 11.3 68 3.3 SSW 9 11 5 6 1012.2 1012.1 0.0
29/10:00pm 17.5 16.4 11.8 69 3.1 SSW 9 15 5 8 1012.2 1012.1 0.0
29/09:30pm 18.1 17.4 12.1 68 3.3 SSW 7 11 4 6 1012.0 1011.9 0.0
29/09:00pm 18.9 18.1 11.7 63 4.0 SE 7 9 4 5 1011.8 1011.7 0.0
29/08:30pm 19.5 17.8 11.3 59 4.5 SSE 11 15 6 8 1011.6 1011.5 0.0
29/08:00pm 19.9 17.0 10.9 56 4.9 SE 17 22 9 12 1011.1 1011.0 0.0
29/07:30pm 21.4 17.1 10.6 50 5.9 SE 24 32 13 17 1010.4 1010.3 0.0
29/07:00pm 22.2 18.8 11.3 50 6.1 ESE 20 28 11 15 1010.0 1009.9 0.0
29/06:30pm 22.5 17.9 10.9 48 6.4 ESE 26 35 14 19 1009.5 1009.4 0.0
29/06:00pm 24.4 20.3 8.0 35 8.7 SSE 19 28 10 15 1009.3 1009.2 0.0
29/05:30pm 24.4 20.1 8.0 35 8.7 S 20 30 11 16 1009.4 1009.3 0.0
29/05:00pm 24.3 20.3 8.3 36 8.5 SSE 19 28 10 15 1009.6 1009.5 0.0
29/04:30pm 24.4 20.1 9.2 38 8.2 SSE 22 37 12 20 1009.9 1009.8 0.0
29/04:00pm 24.3 20.2 8.7 37 8.4 S 20 32 11 17 1010.0 1009.9 0.0
29/03:30pm 24.7 21.0 9.4 38 8.3 S 19 33 10 18 1010.2 1010.1 0.0
29/03:00pm 23.3 19.3 8.2 38 8.0 SSE 19 26 10 14 1010.7 1010.6 0.0
29/02:30pm 23.9 20.1 9.1 39 8.0 SSE 19 26 10 14 1011.0 1010.9 0.0
29/02:00pm 23.3 19.8 8.6 39 7.8 S 17 26 9 14 1011.3 1011.2 0.0
29/01:30pm 23.8 20.2 10.5 43 7.4 SSE 20 28 11 15 1011.6 1011.5 0.0
29/01:00pm 22.9 18.8 8.6 40 7.6 SSW 20 33 11 18 1011.9 1011.8 0.0
29/12:30pm 22.4 18.4 8.9 42 7.2 S 20 28 11 15 1012.3 1012.2 0.0
29/12:00pm 21.8 18.0 9.0 44 6.8 SSW 19 28 10 15 1012.5 1012.4 0.0
29/11:30am 21.4 17.0 9.0 45 6.6 SSW 22 33 12 18 1012.8 1012.7 0.0

Latest Capital City Observations: Canberra | Sydney | Melbourne | Brisbane | Adelaide | Perth | Hobart | Darwin

Other Formats:

Comma delimited format used in spreadsheet applications
http://www.bom.gov.au/fwo/IDN60901/IDN60901.95753.axf

JavaScript Object Notation format (JSON) in row-major order
http://www.bom.gov.au/fwo/IDN60901/IDN60901.95753.json